sensor_id;sensor_type;location;lat;lon;timestamp;temperature;humidity
6098;DHT22;3077;50.922;6.584;2023-04-24T00:00:08;11.80;99.90
6098;DHT22;3077;50.922;6.584;2023-04-24T00:02:38;11.80;99.90
6098;DHT22;3077;50.922;6.584;2023-04-24T00:05:05;11.80;99.90
6098;DHT22;3077;50.922;6.584;2023-04-24T00:07:31;11.80;99.90
6098;DHT22;3077;50.922;6.584;2023-04-24T00:09:57;11.90;99.90
6098;DHT22;3077;50.922;6.584;2023-04-24T00:12:22;11.80;99.90
6098;DHT22;3077;50.922;6.584;2023-04-24T00:14:48;11.80;99.90
6098;DHT22;3077;50.922;6.584;2023-04-24T00:17:13;11.80;99.90
6098;DHT22;3077;50.922;6.584;2023-04-24T00:19:39;11.80;99.90
6098;DHT22;3077;50.922;6.584;2023-04-24T00:22:05;11.80;99.90
6098;DHT22;3077;50.922;6.584;2023-04-24T00:24:31;11.70;99.90
6098;DHT22;3077;50.922;6.584;2023-04-24T00:26:56;11.70;99.90
6098;DHT22;3077;50.922;6.584;2023-04-24T00:29:22;11.80;99.90
6098;DHT22;3077;50.922;6.584;2023-04-24T00:31:48;11.80;99.90
6098;DHT22;3077;50.922;6.584;2023-04-24T00:34:13;11.70;99.90
6098;DHT22;3077;50.922;6.584;2023-04-24T00:36:39;11.60;99.90
6098;DHT22;3077;50.922;6.584;2023-04-24T00:39:05;11.60;99.90
6098;DHT22;3077;50.922;6.584;2023-04-24T00:41:34;11.70;99.90
6098;DHT22;3077;50.922;6.584;2023-04-24T00:43:59;11.70;99.90
6098;DHT22;3077;50.922;6.584;2023-04-24T00:46:25;11.70;99.90
6098;DHT22;3077;50.922;6.584;2023-04-24T00:48:50;11.60;99.90
6098;DHT22;3077;50.922;6.584;2023-04-24T00:51:16;11.50;99.90
6098;DHT22;3077;50.922;6.584;2023-04-24T00:53:42;11.50;99.90
6098;DHT22;3077;50.922;6.584;2023-04-24T00:56:08;11.50;99.90
6098;DHT22;3077;50.922;6.584;2023-04-24T00:58:33;11.40;99.90
6098;DHT22;3077;50.922;6.584;2023-04-24T01:00:59;11.30;99.90
6098;DHT22;3077;50.922;6.584;2023-04-24T01:03:29;11.20;99.90
6098;DHT22;3077;50.922;6.584;2023-04-24T01:05:55;11.10;99.90
6098;DHT22;3077;50.922;6.584;2023-04-24T01:08:23;11.00;99.90
6098;DHT22;3077;50.922;6.584;2023-04-24T01:10:51;10.90;99.90
6098;DHT22;3077;50.922;6.584;2023-04-24T01:13:19;10.70;99.90
6098;DHT22;3077;50.922;6.584;2023-04-24T01:15:45;10.70;99.90
6098;DHT22;3077;50.922;6.584;2023-04-24T01:18:11;10.50;99.90
6098;DHT22;3077;50.922;6.584;2023-04-24T01:20:40;10.40;99.90
6098;DHT22;3077;50.922;6.584;2023-04-24T01:23:08;10.30;99.90
6098;DHT22;3077;50.922;6.584;2023-04-24T01:25:35;10.20;99.90
6098;DHT22;3077;50.922;6.584;2023-04-24T01:28:01;10.20;99.90
6098;DHT22;3077;50.922;6.584;2023-04-24T01:30:27;10.00;99.90
6098;DHT22;3077;50.922;6.584;2023-04-24T01:32:53;10.00;99.90
6098;DHT22;3077;50.922;6.584;2023-04-24T01:35:19;10.10;99.90
6098;DHT22;3077;50.922;6.584;2023-04-24T01:37:45;9.90;99.90
6098;DHT22;3077;50.922;6.584;2023-04-24T01:40:11;9.90;99.90
6098;DHT22;3077;50.922;6.584;2023-04-24T01:42:37;9.90;99.90
6098;DHT22;3077;50.922;6.584;2023-04-24T01:45:04;9.80;99.90
6098;DHT22;3077;50.922;6.584;2023-04-24T01:47:31;9.80;99.90
6098;DHT22;3077;50.922;6.584;2023-04-24T01:49:57;9.90;99.90
6098;DHT22;3077;50.922;6.584;2023-04-24T01:52:23;9.80;99.90
6098;DHT22;3077;50.922;6.584;2023-04-24T01:54:49;10.00;99.90
6098;DHT22;3077;50.922;6.584;2023-04-24T01:57:16;10.00;99.90
6098;DHT22;3077;50.922;6.584;2023-04-24T01:59:42;10.00;99.90
6098;DHT22;3077;50.922;6.584;2023-04-24T02:02:07;10.00;99.90
6098;DHT22;3077;50.922;6.584;2023-04-24T02:04:33;10.00;99.90
6098;DHT22;3077;50.922;6.584;2023-04-24T02:06:58;10.00;99.90
6098;DHT22;3077;50.922;6.584;2023-04-24T02:09:24;10.10;99.90
6098;DHT22;3077;50.922;6.584;2023-04-24T02:11:50;10.00;99.90
6098;DHT22;3077;50.922;6.584;2023-04-24T02:14:16;10.00;99.90
6098;DHT22;3077;50.922;6.584;2023-04-24T02:16:41;10.00;99.90
6098;DHT22;3077;50.922;6.584;2023-04-24T02:19:07;10.00;99.90
6098;DHT22;3077;50.922;6.584;2023-04-24T02:21:33;10.10;99.90
6098;DHT22;3077;50.922;6.584;2023-04-24T02:23:59;10.00;99.90
6098;DHT22;3077;50.922;6.584;2023-04-24T02:26:25;10.10;99.90
6098;DHT22;3077;50.922;6.584;2023-04-24T02:28:50;10.10;99.90
6098;DHT22;3077;50.922;6.584;2023-04-24T02:31:16;10.10;99.90
6098;DHT22;3077;50.922;6.584;2023-04-24T02:33:41;10.10;99.90
6098;DHT22;3077;50.922;6.584;2023-04-24T02:36:07;10.10;99.90
6098;DHT22;3077;50.922;6.584;2023-04-24T02:38:33;10.20;99.90
6098;DHT22;3077;50.922;6.584;2023-04-24T02:40:59;10.10;99.90
6098;DHT22;3077;50.922;6.584;2023-04-24T02:43:26;10.10;99.90
6098;DHT22;3077;50.922;6.584;2023-04-24T02:45:51;10.00;99.90
6098;DHT22;3077;50.922;6.584;2023-04-24T02:48:17;10.00;99.90
6098;DHT22;3077;50.922;6.584;2023-04-24T02:50:43;9.90;99.90
6098;DHT22;3077;50.922;6.584;2023-04-24T02:53:09;9.80;99.90
6098;DHT22;3077;50.922;6.584;2023-04-24T02:55:35;10.00;99.90
6098;DHT22;3077;50.922;6.584;2023-04-24T02:58:00;10.00;99.90
6098;DHT22;3077;50.922;6.584;2023-04-24T03:00:26;9.90;99.90
6098;DHT22;3077;50.922;6.584;2023-04-24T03:02:52;10.00;99.90
6098;DHT22;3077;50.922;6.584;2023-04-24T03:05:18;9.90;99.90
6098;DHT22;3077;50.922;6.584;2023-04-24T03:07:44;9.80;99.90
6098;DHT22;3077;50.922;6.584;2023-04-24T03:10:10;9.90;99.90
6098;DHT22;3077;50.922;6.584;2023-04-24T03:12:36;9.90;99.90
6098;DHT22;3077;50.922;6.584;2023-04-24T03:15:02;10.00;99.90
6098;DHT22;3077;50.922;6.584;2023-04-24T03:17:27;9.80;99.90
6098;DHT22;3077;50.922;6.584;2023-04-24T03:19:53;9.80;99.90
6098;DHT22;3077;50.922;6.584;2023-04-24T03:22:18;9.80;99.90
6098;DHT22;3077;50.922;6.584;2023-04-24T03:24:44;9.80;99.90
6098;DHT22;3077;50.922;6.584;2023-04-24T03:27:10;9.80;99.90
6098;DHT22;3077;50.922;6.584;2023-04-24T03:29:35;10.00;99.90
6098;DHT22;3077;50.922;6.584;2023-04-24T03:32:01;9.90;99.90
6098;DHT22;3077;50.922;6.584;2023-04-24T03:34:26;9.80;99.90
6098;DHT22;3077;50.922;6.584;2023-04-24T03:36:52;9.80;99.90
6098;DHT22;3077;50.922;6.584;2023-04-24T03:39:18;9.90;99.90
6098;DHT22;3077;50.922;6.584;2023-04-24T03:41:43;9.80;99.90
6098;DHT22;3077;50.922;6.584;2023-04-24T03:44:09;10.00;99.90
6098;DHT22;3077;50.922;6.584;2023-04-24T03:46:35;9.90;99.90
6098;DHT22;3077;50.922;6.584;2023-04-24T03:49:00;9.90;99.90
6098;DHT22;3077;50.922;6.584;2023-04-24T03:51:26;10.00;99.90
6098;DHT22;3077;50.922;6.584;2023-04-24T03:53:53;9.80;99.90
6098;DHT22;3077;50.922;6.584;2023-04-24T03:56:19;9.80;99.90
6098;DHT22;3077;50.922;6.584;2023-04-24T03:58:45;10.00;99.90
6098;DHT22;3077;50.922;6.584;2023-04-24T04:01:10;9.70;99.90
6098;DHT22;3077;50.922;6.584;2023-04-24T04:03:37;9.80;99.90
6098;DHT22;3077;50.922;6.584;2023-04-24T04:06:03;9.80;99.90
6098;DHT22;3077;50.922;6.584;2023-04-24T04:08:28;9.80;99.90
6098;DHT22;3077;50.922;6.584;2023-04-24T04:10:54;9.80;99.90
6098;DHT22;3077;50.922;6.584;2023-04-24T04:13:20;9.80;99.90
6098;DHT22;3077;50.922;6.584;2023-04-24T04:15:45;9.80;99.90
6098;DHT22;3077;50.922;6.584;2023-04-24T04:18:11;9.80;99.90
6098;DHT22;3077;50.922;6.584;2023-04-24T04:20:36;9.80;99.90
6098;DHT22;3077;50.922;6.584;2023-04-24T04:23:02;9.80;99.90
6098;DHT22;3077;50.922;6.584;2023-04-24T04:25:28;9.90;99.90
6098;DHT22;3077;50.922;6.584;2023-04-24T04:27:54;9.80;99.90
6098;DHT22;3077;50.922;6.584;2023-04-24T04:30:20;9.70;99.90
6098;DHT22;3077;50.922;6.584;2023-04-24T04:32:46;9.80;99.90
6098;DHT22;3077;50.922;6.584;2023-04-24T04:35:11;9.90;99.90
6098;DHT22;3077;50.922;6.584;2023-04-24T04:37:37;9.90;99.90
6098;DHT22;3077;50.922;6.584;2023-04-24T04:40:03;9.80;99.90
6098;DHT22;3077;50.922;6.584;2023-04-24T04:42:32;9.80;99.90
6098;DHT22;3077;50.922;6.584;2023-04-24T04:45:00;9.80;99.90
6098;DHT22;3077;50.922;6.584;2023-04-24T04:47:26;9.80;99.90
6098;DHT22;3077;50.922;6.584;2023-04-24T04:49:52;9.80;99.90
6098;DHT22;3077;50.922;6.584;2023-04-24T04:52:18;9.70;99.90
6098;DHT22;3077;50.922;6.584;2023-04-24T04:54:44;9.70;99.90
6098;DHT22;3077;50.922;6.584;2023-04-24T04:57:10;9.70;99.90
6098;DHT22;3077;50.922;6.584;2023-04-24T04:59:36;9.70;99.90
6098;DHT22;3077;50.922;6.584;2023-04-24T05:02:02;9.70;99.90
6098;DHT22;3077;50.922;6.584;2023-04-24T05:04:28;9.60;99.90
6098;DHT22;3077;50.922;6.584;2023-04-24T05:06:53;9.70;99.90
6098;DHT22;3077;50.922;6.584;2023-04-24T05:09:19;9.70;99.90
6098;DHT22;3077;50.922;6.584;2023-04-24T05:11:45;9.70;99.90
6098;DHT22;3077;50.922;6.584;2023-04-24T05:14:10;9.70;99.90
6098;DHT22;3077;50.922;6.584;2023-04-24T05:16:38;9.70;99.90
6098;DHT22;3077;50.922;6.584;2023-04-24T05:19:04;9.70;99.90
6098;DHT22;3077;50.922;6.584;2023-04-24T05:21:29;9.60;99.90
6098;DHT22;3077;50.922;6.584;2023-04-24T05:23:56;9.50;99.90
6098;DHT22;3077;50.922;6.584;2023-04-24T05:26:21;9.50;99.90
6098;DHT22;3077;50.922;6.584;2023-04-24T05:28:48;9.30;99.90
6098;DHT22;3077;50.922;6.584;2023-04-24T05:31:13;9.40;99.90
6098;DHT22;3077;50.922;6.584;2023-04-24T05:33:39;9.30;99.90
6098;DHT22;3077;50.922;6.584;2023-04-24T05:36:06;9.30;99.90
6098;DHT22;3077;50.922;6.584;2023-04-24T05:38:31;9.30;99.90
6098;DHT22;3077;50.922;6.584;2023-04-24T05:40:57;9.30;99.90
6098;DHT22;3077;50.922;6.584;2023-04-24T05:43:23;9.30;99.90
6098;DHT22;3077;50.922;6.584;2023-04-24T05:45:48;9.30;99.90
6098;DHT22;3077;50.922;6.584;2023-04-24T05:48:14;9.20;99.90
6098;DHT22;3077;50.922;6.584;2023-04-24T05:50:40;9.20;99.90
6098;DHT22;3077;50.922;6.584;2023-04-24T05:53:05;9.10;99.90
6098;DHT22;3077;50.922;6.584;2023-04-24T05:55:32;9.10;99.90
6098;DHT22;3077;50.922;6.584;2023-04-24T05:57:58;9.10;99.90
6098;DHT22;3077;50.922;6.584;2023-04-24T06:00:24;9.10;99.90
6098;DHT22;3077;50.922;6.584;2023-04-24T06:02:50;9.10;99.90
6098;DHT22;3077;50.922;6.584;2023-04-24T06:05:16;9.00;99.90
6098;DHT22;3077;50.922;6.584;2023-04-24T06:07:42;9.00;99.90
6098;DHT22;3077;50.922;6.584;2023-04-24T06:10:08;9.00;99.90
6098;DHT22;3077;50.922;6.584;2023-04-24T06:12:34;8.90;99.90
6098;DHT22;3077;50.922;6.584;2023-04-24T06:15:00;8.90;99.90
6098;DHT22;3077;50.922;6.584;2023-04-24T06:17:26;8.80;99.90
6098;DHT22;3077;50.922;6.584;2023-04-24T06:19:51;8.70;99.90
6098;DHT22;3077;50.922;6.584;2023-04-24T06:22:17;8.70;99.90
6098;DHT22;3077;50.922;6.584;2023-04-24T06:24:49;8.00;99.90
6098;DHT22;3077;50.922;6.584;2023-04-24T06:27:15;8.60;99.90
6098;DHT22;3077;50.922;6.584;2023-04-24T06:29:40;8.50;99.90
6098;DHT22;3077;50.922;6.584;2023-04-24T06:32:06;8.40;99.90
6098;DHT22;3077;50.922;6.584;2023-04-24T06:34:31;8.40;99.90
6098;DHT22;3077;50.922;6.584;2023-04-24T06:36:59;8.40;99.90
6098;DHT22;3077;50.922;6.584;2023-04-24T06:39:25;8.40;99.90
6098;DHT22;3077;50.922;6.584;2023-04-24T06:41:50;8.30;99.90
6098;DHT22;3077;50.922;6.584;2023-04-24T06:44:16;8.30;99.90
6098;DHT22;3077;50.922;6.584;2023-04-24T06:46:42;8.30;99.90
6098;DHT22;3077;50.922;6.584;2023-04-24T06:49:07;8.20;99.90
6098;DHT22;3077;50.922;6.584;2023-04-24T06:51:33;8.30;99.90
6098;DHT22;3077;50.922;6.584;2023-04-24T06:53:59;8.20;99.90
6098;DHT22;3077;50.922;6.584;2023-04-24T06:56:25;8.20;99.90
6098;DHT22;3077;50.922;6.584;2023-04-24T06:58:51;8.20;99.90
6098;DHT22;3077;50.922;6.584;2023-04-24T07:01:17;8.10;99.90
6098;DHT22;3077;50.922;6.584;2023-04-24T07:03:42;8.20;99.90
6098;DHT22;3077;50.922;6.584;2023-04-24T07:06:09;8.20;99.90
6098;DHT22;3077;50.922;6.584;2023-04-24T07:08:36;8.20;99.90
6098;DHT22;3077;50.922;6.584;2023-04-24T07:11:02;8.10;99.90
6098;DHT22;3077;50.922;6.584;2023-04-24T07:13:28;8.10;99.90
6098;DHT22;3077;50.922;6.584;2023-04-24T07:15:54;8.10;99.90
6098;DHT22;3077;50.922;6.584;2023-04-24T07:18:21;8.00;99.90
6098;DHT22;3077;50.922;6.584;2023-04-24T07:20:47;7.90;99.90
6098;DHT22;3077;50.922;6.584;2023-04-24T07:23:13;7.90;99.90
6098;DHT22;3077;50.922;6.584;2023-04-24T07:25:39;7.80;99.90
6098;DHT22;3077;50.922;6.584;2023-04-24T07:28:05;7.70;99.90
6098;DHT22;3077;50.922;6.584;2023-04-24T07:30:31;7.70;99.90
6098;DHT22;3077;50.922;6.584;2023-04-24T07:32:58;7.60;99.90
6098;DHT22;3077;50.922;6.584;2023-04-24T07:35:24;7.60;99.90
6098;DHT22;3077;50.922;6.584;2023-04-24T07:37:51;7.50;99.90
6098;DHT22;3077;50.922;6.584;2023-04-24T07:40:18;7.50;99.90
6098;DHT22;3077;50.922;6.584;2023-04-24T07:42:43;7.40;99.90
6098;DHT22;3077;50.922;6.584;2023-04-24T07:45:09;7.40;99.90
6098;DHT22;3077;50.922;6.584;2023-04-24T07:47:35;7.30;99.90
6098;DHT22;3077;50.922;6.584;2023-04-24T07:50:02;7.30;99.90
6098;DHT22;3077;50.922;6.584;2023-04-24T07:52:28;7.30;99.90
6098;DHT22;3077;50.922;6.584;2023-04-24T07:54:54;7.40;99.90
6098;DHT22;3077;50.922;6.584;2023-04-24T07:57:24;7.30;99.90
6098;DHT22;3077;50.922;6.584;2023-04-24T07:59:50;7.30;99.90
6098;DHT22;3077;50.922;6.584;2023-04-24T08:02:16;7.20;99.90
6098;DHT22;3077;50.922;6.584;2023-04-24T08:04:41;7.10;99.90
6098;DHT22;3077;50.922;6.584;2023-04-24T08:07:07;7.10;99.90
6098;DHT22;3077;50.922;6.584;2023-04-24T08:09:33;7.00;99.90
6098;DHT22;3077;50.922;6.584;2023-04-24T08:11:59;7.30;99.90
6098;DHT22;3077;50.922;6.584;2023-04-24T08:14:25;7.10;99.90
6098;DHT22;3077;50.922;6.584;2023-04-24T08:16:52;6.80;99.90
6098;DHT22;3077;50.922;6.584;2023-04-24T08:19:17;6.80;99.90
6098;DHT22;3077;50.922;6.584;2023-04-24T08:21:43;6.80;99.90
6098;DHT22;3077;50.922;6.584;2023-04-24T08:24:08;6.70;99.90
6098;DHT22;3077;50.922;6.584;2023-04-24T08:26:34;6.80;99.90
6098;DHT22;3077;50.922;6.584;2023-04-24T08:29:00;6.70;99.90
6098;DHT22;3077;50.922;6.584;2023-04-24T08:31:25;6.70;99.90
6098;DHT22;3077;50.922;6.584;2023-04-24T08:33:51;6.80;99.90
6098;DHT22;3077;50.922;6.584;2023-04-24T08:36:17;6.90;99.90
6098;DHT22;3077;50.922;6.584;2023-04-24T08:38:42;6.90;99.90
6098;DHT22;3077;50.922;6.584;2023-04-24T08:41:09;6.90;99.90
6098;DHT22;3077;50.922;6.584;2023-04-24T08:43:35;7.10;99.90
6098;DHT22;3077;50.922;6.584;2023-04-24T08:46:04;7.10;99.90
6098;DHT22;3077;50.922;6.584;2023-04-24T08:48:30;7.10;99.90
6098;DHT22;3077;50.922;6.584;2023-04-24T08:50:57;7.30;99.90
6098;DHT22;3077;50.922;6.584;2023-04-24T08:53:24;7.10;99.90
6098;DHT22;3077;50.922;6.584;2023-04-24T08:55:51;7.20;99.90
6098;DHT22;3077;50.922;6.584;2023-04-24T08:58:17;7.20;99.90
6098;DHT22;3077;50.922;6.584;2023-04-24T09:00:43;7.30;99.90
6098;DHT22;3077;50.922;6.584;2023-04-24T09:03:16;7.40;99.90
6098;DHT22;3077;50.922;6.584;2023-04-24T09:05:43;7.30;99.90
6098;DHT22;3077;50.922;6.584;2023-04-24T09:08:13;7.40;99.90
6098;DHT22;3077;50.922;6.584;2023-04-24T09:10:39;7.50;99.90
6098;DHT22;3077;50.922;6.584;2023-04-24T09:13:05;7.50;99.90
6098;DHT22;3077;50.922;6.584;2023-04-24T09:15:34;7.50;99.90
6098;DHT22;3077;50.922;6.584;2023-04-24T09:18:00;7.50;99.90
6098;DHT22;3077;50.922;6.584;2023-04-24T09:20:26;7.90;99.90
6098;DHT22;3077;50.922;6.584;2023-04-24T09:22:58;7.60;99.90
6098;DHT22;3077;50.922;6.584;2023-04-24T09:25:34;7.50;99.90
6098;DHT22;3077;50.922;6.584;2023-04-24T09:28:02;7.60;99.90
6098;DHT22;3077;50.922;6.584;2023-04-24T09:30:28;7.60;99.90
6098;DHT22;3077;50.922;6.584;2023-04-24T09:33:13;7.70;99.90
6098;DHT22;3077;50.922;6.584;2023-04-24T09:35:48;7.70;99.90
6098;DHT22;3077;50.922;6.584;2023-04-24T09:38:14;8.30;99.90
6098;DHT22;3077;50.922;6.584;2023-04-24T09:40:40;7.80;99.90
6098;DHT22;3077;50.922;6.584;2023-04-24T09:43:10;7.90;99.90
6098;DHT22;3077;50.922;6.584;2023-04-24T09:45:37;8.00;99.90
6098;DHT22;3077;50.922;6.584;2023-04-24T09:48:03;8.00;99.90
6098;DHT22;3077;50.922;6.584;2023-04-24T09:50:31;8.20;99.90
6098;DHT22;3077;50.922;6.584;2023-04-24T09:53:03;8.20;99.90
6098;DHT22;3077;50.922;6.584;2023-04-24T09:55:29;8.30;99.90
6098;DHT22;3077;50.922;6.584;2023-04-24T09:57:59;8.40;99.90
6098;DHT22;3077;50.922;6.584;2023-04-24T10:00:30;8.50;99.90
6098;DHT22;3077;50.922;6.584;2023-04-24T10:02:56;8.60;99.90
6098;DHT22;3077;50.922;6.584;2023-04-24T10:05:33;8.70;99.90
6098;DHT22;3077;50.922;6.584;2023-04-24T10:08:08;8.80;99.90
6098;DHT22;3077;50.922;6.584;2023-04-24T10:10:37;8.80;99.90
6098;DHT22;3077;50.922;6.584;2023-04-24T10:13:04;8.70;99.90
6098;DHT22;3077;50.922;6.584;2023-04-24T10:15:30;8.80;99.90
6098;DHT22;3077;50.922;6.584;2023-04-24T10:17:58;8.90;99.90
6098;DHT22;3077;50.922;6.584;2023-04-24T10:20:26;8.80;99.90
6098;DHT22;3077;50.922;6.584;2023-04-24T10:22:55;8.90;99.90
6098;DHT22;3077;50.922;6.584;2023-04-24T10:25:23;9.00;99.90
6098;DHT22;3077;50.922;6.584;2023-04-24T10:27:50;9.40;99.90
6098;DHT22;3077;50.922;6.584;2023-04-24T10:30:17;9.30;99.90
6098;DHT22;3077;50.922;6.584;2023-04-24T10:32:43;9.40;99.90
6098;DHT22;3077;50.922;6.584;2023-04-24T10:35:10;9.50;99.90
6098;DHT22;3077;50.922;6.584;2023-04-24T10:37:40;9.60;99.90
6098;DHT22;3077;50.922;6.584;2023-04-24T10:40:07;9.50;99.90
6098;DHT22;3077;50.922;6.584;2023-04-24T10:42:34;9.50;99.90
6098;DHT22;3077;50.922;6.584;2023-04-24T10:45:04;9.70;99.90
6098;DHT22;3077;50.922;6.584;2023-04-24T10:47:30;9.50;99.90
6098;DHT22;3077;50.922;6.584;2023-04-24T10:50:09;9.50;99.90
6098;DHT22;3077;50.922;6.584;2023-04-24T10:52:47;9.50;99.90
6098;DHT22;3077;50.922;6.584;2023-04-24T10:55:16;9.30;99.90
6098;DHT22;3077;50.922;6.584;2023-04-24T10:58:01;9.20;99.90
6098;DHT22;3077;50.922;6.584;2023-04-24T11:00:28;9.10;99.90
6098;DHT22;3077;50.922;6.584;2023-04-24T11:02:53;9.00;99.90
6098;DHT22;3077;50.922;6.584;2023-04-24T11:05:21;9.10;99.90
6098;DHT22;3077;50.922;6.584;2023-04-24T11:10:44;8.80;99.90
6098;DHT22;3077;50.922;6.584;2023-04-24T11:13:13;9.20;99.90
6098;DHT22;3077;50.922;6.584;2023-04-24T11:15:41;8.80;99.90
6098;DHT22;3077;50.922;6.584;2023-04-24T11:18:13;8.80;99.90
6098;DHT22;3077;50.922;6.584;2023-04-24T11:20:42;8.80;99.90
6098;DHT22;3077;50.922;6.584;2023-04-24T11:23:08;8.90;99.90
6098;DHT22;3077;50.922;6.584;2023-04-24T11:25:35;9.20;99.90
6098;DHT22;3077;50.922;6.584;2023-04-24T11:28:05;9.30;99.90
6098;DHT22;3077;50.922;6.584;2023-04-24T11:30:31;9.40;99.90
6098;DHT22;3077;50.922;6.584;2023-04-24T11:33:04;9.70;99.90
6098;DHT22;3077;50.922;6.584;2023-04-24T11:35:35;10.00;99.90
6098;DHT22;3077;50.922;6.584;2023-04-24T11:38:04;10.40;99.90
6098;DHT22;3077;50.922;6.584;2023-04-24T11:40:30;10.60;99.90
6098;DHT22;3077;50.922;6.584;2023-04-24T11:42:56;11.00;99.90
6098;DHT22;3077;50.922;6.584;2023-04-24T11:45:26;11.10;99.90
6098;DHT22;3077;50.922;6.584;2023-04-24T11:47:52;11.10;99.90
6098;DHT22;3077;50.922;6.584;2023-04-24T11:50:21;11.00;99.90
6098;DHT22;3077;50.922;6.584;2023-04-24T11:52:48;10.90;99.90
6098;DHT22;3077;50.922;6.584;2023-04-24T11:57:42;10.80;99.90
6098;DHT22;3077;50.922;6.584;2023-04-24T12:00:22;10.80;99.90
6098;DHT22;3077;50.922;6.584;2023-04-24T12:02:49;10.70;99.90
6098;DHT22;3077;50.922;6.584;2023-04-24T12:07:46;10.50;99.90
6098;DHT22;3077;50.922;6.584;2023-04-24T12:10:12;10.70;99.90
6098;DHT22;3077;50.922;6.584;2023-04-24T12:12:37;10.80;99.90
6098;DHT22;3077;50.922;6.584;2023-04-24T12:15:07;11.10;99.90
6098;DHT22;3077;50.922;6.584;2023-04-24T12:17:34;11.40;99.90
6098;DHT22;3077;50.922;6.584;2023-04-24T12:20:02;11.80;99.90
6098;DHT22;3077;50.922;6.584;2023-04-24T12:23:16;12.20;99.90
6098;DHT22;3077;50.922;6.584;2023-04-24T12:25:34;12.30;99.90
6098;DHT22;3077;50.922;6.584;2023-04-24T12:30:39;12.50;99.90
6098;DHT22;3077;50.922;6.584;2023-04-24T12:33:05;12.70;99.90
6098;DHT22;3077;50.922;6.584;2023-04-24T12:35:33;13.40;99.90
6098;DHT22;3077;50.922;6.584;2023-04-24T12:38:06;13.60;99.90
6098;DHT22;3077;50.922;6.584;2023-04-24T12:40:32;13.50;99.90
6098;DHT22;3077;50.922;6.584;2023-04-24T12:42:58;13.00;99.90
6098;DHT22;3077;50.922;6.584;2023-04-24T12:45:23;12.60;99.90
6098;DHT22;3077;50.922;6.584;2023-04-24T12:47:50;12.70;99.90
6098;DHT22;3077;50.922;6.584;2023-04-24T12:50:16;13.30;99.90
6098;DHT22;3077;50.922;6.584;2023-04-24T12:52:43;13.80;99.90
6098;DHT22;3077;50.922;6.584;2023-04-24T12:55:09;14.40;99.90
6098;DHT22;3077;50.922;6.584;2023-04-24T12:57:36;14.60;99.90
6098;DHT22;3077;50.922;6.584;2023-04-24T13:00:03;14.10;99.90
6098;DHT22;3077;50.922;6.584;2023-04-24T13:02:30;13.50;99.90
6098;DHT22;3077;50.922;6.584;2023-04-24T13:04:56;13.20;99.90
6098;DHT22;3077;50.922;6.584;2023-04-24T13:07:22;13.30;99.90
6098;DHT22;3077;50.922;6.584;2023-04-24T13:09:49;13.80;99.90
6098;DHT22;3077;50.922;6.584;2023-04-24T13:12:15;14.50;99.90
6098;DHT22;3077;50.922;6.584;2023-04-24T13:14:41;14.40;99.90
6098;DHT22;3077;50.922;6.584;2023-04-24T13:17:07;14.00;99.90
6098;DHT22;3077;50.922;6.584;2023-04-24T13:19:44;14.20;99.90
6098;DHT22;3077;50.922;6.584;2023-04-24T13:22:32;15.20;99.90
6098;DHT22;3077;50.922;6.584;2023-04-24T13:24:58;15.00;99.90
6098;DHT22;3077;50.922;6.584;2023-04-24T13:27:40;14.70;99.90
6098;DHT22;3077;50.922;6.584;2023-04-24T13:30:06;14.60;99.90
6098;DHT22;3077;50.922;6.584;2023-04-24T13:35:54;13.70;99.90
6098;DHT22;3077;50.922;6.584;2023-04-24T13:38:20;12.90;99.90
6098;DHT22;3077;50.922;6.584;2023-04-24T13:40:46;12.70;99.90
6098;DHT22;3077;50.922;6.584;2023-04-24T13:43:15;12.80;99.90
6098;DHT22;3077;50.922;6.584;2023-04-24T13:45:44;12.70;99.90
6098;DHT22;3077;50.922;6.584;2023-04-24T13:51:26;12.00;99.90
6098;DHT22;3077;50.922;6.584;2023-04-24T13:54:42;12.60;99.90
6098;DHT22;3077;50.922;6.584;2023-04-24T13:57:10;13.20;99.90
6098;DHT22;3077;50.922;6.584;2023-04-24T13:59:36;12.70;99.90
6098;DHT22;3077;50.922;6.584;2023-04-24T14:02:02;12.70;99.90
6098;DHT22;3077;50.922;6.584;2023-04-24T14:04:27;12.60;99.90
6098;DHT22;3077;50.922;6.584;2023-04-24T14:06:53;12.40;99.90
6098;DHT22;3077;50.922;6.584;2023-04-24T14:09:40;12.40;99.90
6098;DHT22;3077;50.922;6.584;2023-04-24T14:17:36;13.40;99.90
6098;DHT22;3077;50.922;6.584;2023-04-24T14:20:20;13.70;99.90
6098;DHT22;3077;50.922;6.584;2023-04-24T14:22:46;13.60;99.90
6098;DHT22;3077;50.922;6.584;2023-04-24T14:25:11;13.50;99.90
6098;DHT22;3077;50.922;6.584;2023-04-24T14:27:37;13.50;99.90
6098;DHT22;3077;50.922;6.584;2023-04-24T14:30:03;13.40;99.90
6098;DHT22;3077;50.922;6.584;2023-04-24T14:32:29;13.70;99.90
6098;DHT22;3077;50.922;6.584;2023-04-24T14:34:55;13.90;99.90
6098;DHT22;3077;50.922;6.584;2023-04-24T14:37:21;15.30;99.90
6098;DHT22;3077;50.922;6.584;2023-04-24T14:39:46;16.10;99.90
6098;DHT22;3077;50.922;6.584;2023-04-24T14:42:12;15.80;99.90
6098;DHT22;3077;50.922;6.584;2023-04-24T14:44:37;15.00;99.90
6098;DHT22;3077;50.922;6.584;2023-04-24T14:47:03;14.20;99.90
6098;DHT22;3077;50.922;6.584;2023-04-24T14:49:29;13.90;99.90
6098;DHT22;3077;50.922;6.584;2023-04-24T14:51:54;14.50;99.90
6098;DHT22;3077;50.922;6.584;2023-04-24T14:54:20;15.40;99.90
6098;DHT22;3077;50.922;6.584;2023-04-24T14:56:48;16.20;99.90
6098;DHT22;3077;50.922;6.584;2023-04-24T14:59:14;16.30;99.90
6098;DHT22;3077;50.922;6.584;2023-04-24T15:01:40;15.80;99.90
6098;DHT22;3077;50.922;6.584;2023-04-24T15:04:05;15.40;99.90
6098;DHT22;3077;50.922;6.584;2023-04-24T15:06:31;14.80;99.90
6098;DHT22;3077;50.922;6.584;2023-04-24T15:08:58;14.80;99.90
6098;DHT22;3077;50.922;6.584;2023-04-24T15:11:23;15.30;99.90
6098;DHT22;3077;50.922;6.584;2023-04-24T15:13:49;15.50;99.90
6098;DHT22;3077;50.922;6.584;2023-04-24T15:16:15;16.20;99.90
6098;DHT22;3077;50.922;6.584;2023-04-24T15:18:41;15.90;99.90
6098;DHT22;3077;50.922;6.584;2023-04-24T15:21:07;15.50;99.90
6098;DHT22;3077;50.922;6.584;2023-04-24T15:23:33;16.10;99.90
6098;DHT22;3077;50.922;6.584;2023-04-24T15:25:58;16.40;99.90
6098;DHT22;3077;50.922;6.584;2023-04-24T15:28:27;16.90;99.90
6098;DHT22;3077;50.922;6.584;2023-04-24T15:30:53;16.80;99.90
6098;DHT22;3077;50.922;6.584;2023-04-24T15:33:19;17.10;99.90
6098;DHT22;3077;50.922;6.584;2023-04-24T15:35:47;16.80;99.90
6098;DHT22;3077;50.922;6.584;2023-04-24T15:38:14;15.90;99.90
6098;DHT22;3077;50.922;6.584;2023-04-24T15:40:39;15.40;99.90
6098;DHT22;3077;50.922;6.584;2023-04-24T15:43:05;15.00;99.90
6098;DHT22;3077;50.922;6.584;2023-04-24T15:45:32;14.40;99.90
6098;DHT22;3077;50.922;6.584;2023-04-24T15:47:58;13.90;99.90
6098;DHT22;3077;50.922;6.584;2023-04-24T15:50:24;13.60;99.90
6098;DHT22;3077;50.922;6.584;2023-04-24T15:52:50;13.30;99.90
6098;DHT22;3077;50.922;6.584;2023-04-24T15:55:16;13.10;99.90
6098;DHT22;3077;50.922;6.584;2023-04-24T15:57:42;12.90;99.90
6098;DHT22;3077;50.922;6.584;2023-04-24T16:00:08;12.90;99.90
6098;DHT22;3077;50.922;6.584;2023-04-24T16:02:38;12.90;99.90
6098;DHT22;3077;50.922;6.584;2023-04-24T16:05:04;12.90;99.90
6098;DHT22;3077;50.922;6.584;2023-04-24T16:07:33;12.90;99.90
6098;DHT22;3077;50.922;6.584;2023-04-24T16:09:59;12.80;99.90
6098;DHT22;3077;50.922;6.584;2023-04-24T16:12:24;12.90;99.90
6098;DHT22;3077;50.922;6.584;2023-04-24T16:14:52;12.90;99.90
6098;DHT22;3077;50.922;6.584;2023-04-24T16:17:19;13.10;99.90
6098;DHT22;3077;50.922;6.584;2023-04-24T16:19:45;13.10;99.90
6098;DHT22;3077;50.922;6.584;2023-04-24T16:22:10;13.20;99.90
6098;DHT22;3077;50.922;6.584;2023-04-24T16:24:36;13.50;99.90
6098;DHT22;3077;50.922;6.584;2023-04-24T16:27:01;13.50;99.90
6098;DHT22;3077;50.922;6.584;2023-04-24T16:29:29;13.40;99.90